Red Bay, Canada
Current Conditions -  °F | °C
As of 12:48 AM on Saturday 25 Oct 2014 (Local Time) from CYAY Reporting Station
Broken Clouds Broken Clouds  
Wind Chill: 26°   Ceiling: 1800
Heat Index: 37°   Visibility: 9mi
Dew Point: 34°   Wind: 24mph
Humidity: 87%   Direction: 40°NE
Pressure: 29.85"   Gusts: 31mph
Location:  51.73°N, 56.42°W
Report Text: CYAY 250348Z AUTO 04021G27KT 9SM BKN018 03/01 A2985 RMK SLP109
Loading
Personal Weather Stations






























Interactive Weather Map
Tropical Storm Tracking
New forecast layout! Learn more

10-Day Weather Forecast

Advertisements
Track Severe Weather on mobile